Time;durP1;ratioP1;P1;durP2;ratioP2;P2;SDS_P1;SDS_P2;PMS_P1;PMS_P2;Temp;Humidity;BMP_temperature;BMP_pressure;BME280_temperature;BME280_humidity;BME280_pressure;Samples;Min_cycle;Max_cycle;Signal;HPM_P1;HPM_P2
2021/09/11 00:00:39;;;;;;;19.77;2.38;;;;;;;;;;5016412;28;20620;-70
2021/09/11 00:03:05;;;;;;;11.55;1.90;;;;;;;;;;5015232;28;20132;-69
2021/09/11 00:05:32;;;;;;;14.82;2.15;;;;;;;;;;5016253;28;20041;-80
2021/09/11 00:07:58;;;;;;;14.18;2.50;;;;;;;;;;5015139;28;20037;-68
2021/09/11 00:10:24;;;;;;;16.90;2.08;;;;;;;;;;5016543;28;20022;-68
2021/09/11 00:12:50;;;;;;;10.30;2.13;;;;;;;;;;5016218;28;20042;-68
2021/09/11 00:15:20;;;;;;;14.43;2.42;;;;;;;;;;5016478;28;20113;-68
2021/09/11 00:17:49;;;;;;;4.05;1.75;;;;;;;;;;5015956;28;20026;-74
2021/09/11 00:20:16;;;;;;;12.15;1.70;;;;;;;;;;5014058;28;20042;-73
2021/09/11 00:22:42;;;;;;;7.43;2.33;;;;;;;;;;5014388;28;20117;-74
2021/09/11 00:25:08;;;;;;;8.82;1.95;;;;;;;;;;5015897;28;20053;-72
2021/09/11 00:27:34;;;;;;;13.65;2.00;;;;;;;;;;5015714;28;20034;-74
2021/09/11 00:30:01;;;;;;;4.53;2.03;;;;;;;;;;5015998;28;20022;-70
2021/09/11 00:32:26;;;;;;;7.25;1.75;;;;;;;;;;5014946;28;20386;-70
2021/09/11 00:34:52;;;;;;;13.43;1.63;;;;;;;;;;5015628;28;20457;-69
2021/09/11 00:37:18;;;;;;;13.82;1.95;;;;;;;;;;5015517;28;20026;-69
2021/09/11 00:39:44;;;;;;;5.70;1.60;;;;;;;;;;5014598;28;20052;-69
2021/09/11 00:42:10;;;;;;;8.18;1.73;;;;;;;;;;5015671;28;20026;-69
2021/09/11 00:44:36;;;;;;;8.63;1.67;;;;;;;;;;5015742;28;20026;-69
2021/09/11 00:47:02;;;;;;;10.27;2.03;;;;;;;;;;5015712;28;20022;-69
2021/09/11 00:49:28;;;;;;;6.68;1.38;;;;;;;;;;5015863;28;20160;-69
2021/09/11 00:51:54;;;;;;;11.68;1.60;;;;;;;;;;5015704;28;20053;-68
2021/09/11 00:54:20;;;;;;;9.48;2.00;;;;;;;;;;5015363;28;20026;-69
2021/09/11 00:56:46;;;;;;;19.33;1.73;;;;;;;;;;5014283;28;20389;-70
2021/09/11 00:59:12;;;;;;;15.02;1.83;;;;;;;;;;5015121;28;20524;-68
2021/09/11 01:01:38;;;;;;;9.43;1.90;;;;;;;;;;5013747;28;20028;-69
2021/09/11 01:04:05;;;;;;;12.30;1.85;;;;;;;;;;5015269;28;20061;-67
2021/09/11 01:06:31;;;;;;;9.63;1.60;;;;;;;;;;5014434;28;20486;-76
2021/09/11 01:08:58;;;;;;;11.13;1.70;;;;;;;;;;5015026;28;20057;-75
2021/09/11 01:11:24;;;;;;;7.80;2.00;;;;;;;;;;5014820;28;20050;-74
2021/09/11 01:13:50;;;;;;;11.35;1.83;;;;;;;;;;5014803;28;20527;-69
2021/09/11 01:16:16;;;;;;;7.90;1.88;;;;;;;;;;5014798;28;20026;-69
2021/09/11 01:18:42;;;;;;;11.68;1.63;;;;;;;;;;5014594;28;20073;-70
2021/09/11 01:21:08;;;;;;;13.05;2.00;;;;;;;;;;5015225;28;20488;-70
2021/09/11 01:23:38;;;;;;;14.57;1.95;;;;;;;;;;5014693;28;20084;-72
2021/09/11 01:26:04;;;;;;;10.45;1.92;;;;;;;;;;5014904;28;20030;-70
2021/09/11 01:28:30;;;;;;;13.77;2.42;;;;;;;;;;5014730;28;20022;-70
2021/09/11 01:30:56;;;;;;;13.43;1.90;;;;;;;;;;5014868;28;20041;-71
2021/09/11 01:33:23;;;;;;;8.88;1.83;;;;;;;;;;5014520;28;20097;-70
2021/09/11 01:35:49;;;;;;;12.20;2.22;;;;;;;;;;5013307;28;20037;-73
2021/09/11 01:38:15;;;;;;;15.48;1.73;;;;;;;;;;5013179;28;20074;-69
2021/09/11 01:40:41;;;;;;;13.20;1.80;;;;;;;;;;5014495;28;20030;-70
2021/09/11 01:43:07;;;;;;;6.53;1.77;;;;;;;;;;5013319;28;20366;-68
2021/09/11 01:45:33;;;;;;;17.42;2.20;;;;;;;;;;5014363;28;20025;-68
2021/09/11 01:47:59;;;;;;;11.23;1.92;;;;;;;;;;5014183;28;20022;-68
2021/09/11 01:50:25;;;;;;;12.00;1.90;;;;;;;;;;5012233;28;20087;-68
2021/09/11 01:52:52;;;;;;;15.32;2.00;;;;;;;;;;5014613;28;20038;-70
2021/09/11 01:55:18;;;;;;;13.75;1.60;;;;;;;;;;5014833;28;20021;-69
2021/09/11 01:57:45;;;;;;;10.75;2.47;;;;;;;;;;5014589;28;20161;-69
2021/09/11 02:00:11;;;;;;;8.43;1.77;;;;;;;;;;5014747;28;20061;-68
2021/09/11 02:02:37;;;;;;;9.00;2.00;;;;;;;;;;5014337;28;20088;-68
2021/09/11 02:05:04;;;;;;;8.98;1.67;;;;;;;;;;5014728;28;20096;-68
2021/09/11 02:07:30;;;;;;;11.05;1.77;;;;;;;;;;5014074;28;20084;-69
2021/09/11 02:10:06;;;;;;;5.55;1.88;;;;;;;;;;5014285;28;20025;-70
2021/09/11 02:12:35;;;;;;;11.05;2.10;;;;;;;;;;5013936;28;20049;-68
2021/09/11 02:15:01;;;;;;;10.45;1.75;;;;;;;;;;5013914;28;20026;-69
2021/09/11 02:17:27;;;;;;;11.05;1.85;;;;;;;;;;5013708;28;20026;-69
2021/09/11 02:19:53;;;;;;;9.35;1.75;;;;;;;;;;5013640;28;20366;-69
2021/09/11 02:22:19;;;;;;;12.00;1.40;;;;;;;;;;5013841;28;20108;-68
2021/09/11 02:24:45;;;;;;;7.82;1.60;;;;;;;;;;5011947;28;20034;-68
2021/09/11 02:27:11;;;;;;;7.80;1.95;;;;;;;;;;5014060;28;20050;-68
2021/09/11 02:29:37;;;;;;;13.05;1.60;;;;;;;;;;5013682;28;20459;-68
2021/09/11 02:32:04;;;;;;;8.50;1.40;;;;;;;;;;5013402;28;20499;-69
2021/09/11 02:34:30;;;;;;;14.13;1.95;;;;;;;;;;5013952;28;20022;-69
2021/09/11 02:36:56;;;;;;;12.27;1.70;;;;;;;;;;5014008;28;20121;-68
2021/09/11 02:39:22;;;;;;;16.80;1.85;;;;;;;;;;5013618;28;20562;-68
2021/09/11 02:41:48;;;;;;;5.47;1.50;;;;;;;;;;5014051;28;20462;-69
2021/09/11 02:44:14;;;;;;;8.15;1.60;;;;;;;;;;5013981;28;20084;-71
2021/09/11 02:46:40;;;;;;;12.88;1.75;;;;;;;;;;5013237;28;20030;-69
2021/09/11 02:49:06;;;;;;;14.02;1.50;;;;;;;;;;5013747;28;20029;-70
2021/09/11 02:51:32;;;;;;;8.70;1.90;;;;;;;;;;5013806;28;20038;-69
2021/09/11 02:53:59;;;;;;;18.38;1.95;;;;;;;;;;5013524;28;20026;-68
2021/09/11 02:56:25;;;;;;;4.95;1.95;;;;;;;;;;5013818;28;20053;-68
2021/09/11 02:58:51;;;;;;;10.73;1.75;;;;;;;;;;5013397;28;20436;-69
2021/09/11 03:01:17;;;;;;;23.85;1.83;;;;;;;;;;5012106;28;20446;-68
2021/09/11 03:03:43;;;;;;;11.93;2.58;;;;;;;;;;5013180;28;20049;-69
2021/09/11 03:06:09;;;;;;;6.18;1.70;;;;;;;;;;5013575;28;20076;-68
2021/09/11 03:08:35;;;;;;;15.45;2.20;;;;;;;;;;5013550;28;20121;-69
2021/09/11 03:11:02;;;;;;;38.97;3.88;;;;;;;;;;5013224;28;20501;-68
2021/09/11 03:13:28;;;;;;;18.67;3.38;;;;;;;;;;5013497;28;20477;-70
2021/09/11 03:15:54;;;;;;;5.95;2.72;;;;;;;;;;5013290;28;20060;-70
2021/09/11 03:18:20;;;;;;;13.43;3.08;;;;;;;;;;5011868;28;20393;-70
2021/09/11 03:20:49;;;;;;;8.77;3.28;;;;;;;;;;5013379;28;20041;-71
2021/09/11 03:23:15;;;;;;;10.38;3.17;;;;;;;;;;5013599;28;20049;-70
2021/09/11 03:25:41;;;;;;;12.43;3.85;;;;;;;;;;5013352;28;20025;-71
2021/09/11 03:28:07;;;;;;;9.23;3.50;;;;;;;;;;5013591;28;20045;-71
2021/09/11 03:30:33;;;;;;;8.82;3.72;;;;;;;;;;5013324;28;20026;-69
2021/09/11 03:33:00;;;;;;;11.60;4.05;;;;;;;;;;5013489;28;20018;-68
2021/09/11 03:35:26;;;;;;;9.40;3.60;;;;;;;;;;5010875;28;20034;-69
2021/09/11 03:37:52;;;;;;;12.10;3.42;;;;;;;;;;5012046;28;20018;-71
2021/09/11 03:40:18;;;;;;;13.60;2.97;;;;;;;;;;5013038;28;20067;-68
2021/09/11 03:42:45;;;;;;;13.80;3.03;;;;;;;;;;5014011;28;20069;-68
2021/09/11 03:45:11;;;;;;;13.68;3.00;;;;;;;;;;5016612;28;20100;-69
2021/09/11 03:47:37;;;;;;;9.05;3.17;;;;;;;;;;5016881;28;20506;-71
2021/09/11 03:50:04;;;;;;;9.48;3.05;;;;;;;;;;5016604;28;20512;-70
2021/09/11 03:52:30;;;;;;;20.52;3.22;;;;;;;;;;5017067;28;20528;-70
2021/09/11 03:54:56;;;;;;;9.55;2.90;;;;;;;;;;5015355;28;20025;-67
2021/09/11 03:57:22;;;;;;;10.38;3.60;;;;;;;;;;5016541;28;20026;-69
2021/09/11 03:59:48;;;;;;;17.67;3.30;;;;;;;;;;5016180;28;20037;-69
2021/09/11 04:02:14;;;;;;;6.63;2.72;;;;;;;;;;5016404;28;20381;-68
2021/09/11 04:04:40;;;;;;;13.32;3.70;;;;;;;;;;5015533;28;20041;-67
2021/09/11 04:07:06;;;;;;;9.48;3.33;;;;;;;;;;5016306;28;20018;-69
2021/09/11 04:09:32;;;;;;;17.48;4.13;;;;;;;;;;5015491;28;20022;-68
2021/09/11 04:11:58;;;;;;;11.65;3.50;;;;;;;;;;5015054;28;20153;-68
2021/09/11 04:14:23;;;;;;;13.85;3.45;;;;;;;;;;5016360;28;20026;-68
2021/09/11 04:16:50;;;;;;;12.00;3.58;;;;;;;;;;5015865;28;20033;-67
2021/09/11 04:19:16;;;;;;;9.18;3.50;;;;;;;;;;5015976;28;20040;-68
2021/09/11 04:21:42;;;;;;;10.73;3.42;;;;;;;;;;5014877;28;20021;-68
2021/09/11 04:24:08;;;;;;;9.40;2.83;;;;;;;;;;5015110;28;20100;-68
2021/09/11 04:26:36;;;;;;;12.65;3.28;;;;;;;;;;5016178;28;20457;-68
2021/09/11 04:29:02;;;;;;;10.55;3.22;;;;;;;;;;5015804;28;20025;-68
2021/09/11 04:31:28;;;;;;;11.32;3.80;;;;;;;;;;5016176;28;20026;-68
2021/09/11 04:33:54;;;;;;;12.15;4.30;;;;;;;;;;5015713;28;20022;-68
2021/09/11 04:36:20;;;;;;;12.45;3.90;;;;;;;;;;5015592;28;20030;-67
2021/09/11 04:38:46;;;;;;;9.73;3.75;;;;;;;;;;5015560;28;20045;-68
2021/09/11 04:41:12;;;;;;;9.32;3.95;;;;;;;;;;5016115;28;20445;-72
2021/09/11 04:43:38;;;;;;;10.95;4.05;;;;;;;;;;5015590;28;20380;-67
2021/09/11 04:46:04;;;;;;;7.03;3.30;;;;;;;;;;5014155;28;20025;-68
2021/09/11 04:48:30;;;;;;;9.10;3.95;;;;;;;;;;5015387;28;20030;-68
2021/09/11 04:50:56;;;;;;;13.27;4.13;;;;;;;;;;5015291;28;20032;-69
2021/09/11 04:53:22;;;;;;;15.82;3.80;;;;;;;;;;5013816;28;20386;-70
2021/09/11 04:55:48;;;;;;;9.23;3.22;;;;;;;;;;5014543;28;20054;-68
2021/09/11 04:58:14;;;;;;;12.63;3.63;;;;;;;;;;5015248;28;20115;-69
2021/09/11 05:00:41;;;;;;;12.68;3.47;;;;;;;;;;5015045;28;20037;-68
2021/09/11 05:03:07;;;;;;;13.85;3.60;;;;;;;;;;5015097;28;20377;-68
2021/09/11 05:05:33;;;;;;;8.65;3.25;;;;;;;;;;5013897;28;20445;-70
2021/09/11 05:07:59;;;;;;;20.45;4.45;;;;;;;;;;5014997;28;20026;-68
2021/09/11 05:10:26;;;;;;;24.67;3.78;;;;;;;;;;5015362;28;20428;-70
2021/09/11 05:12:52;;;;;;;18.23;4.38;;;;;;;;;;5014130;28;20068;-69
2021/09/11 05:15:18;;;;;;;36.80;3.40;;;;;;;;;;5015222;28;20462;-69
2021/09/11 05:17:45;;;;;;;25.52;3.50;;;;;;;;;;5013955;28;20061;-70
2021/09/11 05:20:11;;;;;;;19.35;3.28;;;;;;;;;;5015148;28;20542;-70
2021/09/11 05:22:37;;;;;;;24.13;3.85;;;;;;;;;;5013974;28;20026;-70
2021/09/11 05:25:05;;;;;;;14.60;3.05;;;;;;;;;;5014932;28;20355;-69
2021/09/11 05:27:31;;;;;;;19.50;3.20;;;;;;;;;;5014891;28;20026;-70
2021/09/11 05:29:57;;;;;;;11.98;3.45;;;;;;;;;;5014864;28;20032;-69
2021/09/11 05:32:23;;;;;;;17.13;3.30;;;;;;;;;;5014730;28;20536;-69
2021/09/11 05:34:49;;;;;;;28.63;3.55;;;;;;;;;;5014583;28;20026;-70
2021/09/11 05:37:15;;;;;;;15.57;2.80;;;;;;;;;;5013468;28;20397;-68
2021/09/11 05:39:41;;;;;;;16.15;3.58;;;;;;;;;;5013183;28;20079;-69
2021/09/11 05:42:07;;;;;;;14.13;4.25;;;;;;;;;;5013278;28;20026;-70
2021/09/11 05:44:33;;;;;;;18.95;3.65;;;;;;;;;;5013319;28;20453;-70
2021/09/11 05:47:00;;;;;;;21.65;3.28;;;;;;;;;;5014906;28;20018;-70
2021/09/11 05:49:26;;;;;;;28.45;3.35;;;;;;;;;;5014493;28;20437;-70
2021/09/11 05:51:52;;;;;;;31.58;3.17;;;;;;;;;;5014567;28;20025;-70
2021/09/11 05:54:18;;;;;;;20.95;3.03;;;;;;;;;;5014229;28;20161;-70
2021/09/11 05:56:44;;;;;;;19.23;3.50;;;;;;;;;;5012999;28;20033;-70
2021/09/11 05:59:10;;;;;;;13.80;3.42;;;;;;;;;;5007875;28;20038;-69
2021/09/11 06:01:36;;;;;;;10.23;3.92;;;;;;;;;;5000236;28;20425;-69
2021/09/11 06:04:02;;;;;;;19.10;3.40;;;;;;;;;;5006622;28;20022;-68
2021/09/11 06:06:28;;;;;;;14.77;3.20;;;;;;;;;;5001544;28;20073;-68
2021/09/11 06:08:54;;;;;;;9.52;2.90;;;;;;;;;;5000499;28;20030;-69
2021/09/11 06:11:20;;;;;;;9.23;3.22;;;;;;;;;;5003733;28;20042;-69
2021/09/11 06:13:46;;;;;;;9.27;3.40;;;;;;;;;;5009252;28;20108;-68
2021/09/11 06:16:12;;;;;;;12.02;3.35;;;;;;;;;;5007841;28;20097;-68
2021/09/11 06:18:38;;;;;;;9.43;3.97;;;;;;;;;;5001149;28;20113;-68
2021/09/11 06:21:05;;;;;;;5.95;2.80;;;;;;;;;;5014116;28;20389;-68
2021/09/11 06:23:31;;;;;;;9.65;3.35;;;;;;;;;;5014033;28;20413;-68
2021/09/11 06:25:57;;;;;;;8.32;3.78;;;;;;;;;;5014070;28;20440;-68
2021/09/11 06:28:24;;;;;;;11.32;3.90;;;;;;;;;;5013904;28;20465;-68
2021/09/11 06:30:51;;;;;;;8.48;3.47;;;;;;;;;;5012492;28;20026;-69
2021/09/11 06:33:17;;;;;;;10.82;2.70;;;;;;;;;;5002313;28;20082;-63
2021/09/11 06:35:43;;;;;;;7.22;2.40;;;;;;;;;;5004431;28;20038;-63
2021/09/11 06:38:09;;;;;;;8.90;3.53;;;;;;;;;;5013564;28;20025;-69
2021/09/11 06:40:35;;;;;;;9.52;3.17;;;;;;;;;;5013620;28;20034;-69
2021/09/11 06:43:01;;;;;;;10.77;3.00;;;;;;;;;;5013306;28;20025;-77
2021/09/11 06:45:27;;;;;;;10.05;3.05;;;;;;;;;;5012659;28;20029;-77
2021/09/11 06:47:53;;;;;;;10.18;2.83;;;;;;;;;;5014465;28;20026;-79
2021/09/11 06:50:19;;;;;;;7.25;2.83;;;;;;;;;;5013551;28;20026;-78
2021/09/11 06:52:45;;;;;;;9.77;3.60;;;;;;;;;;5011754;28;20493;-79
2021/09/11 06:55:23;;;;;;;9.60;3.10;;;;;;;;;;4993854;28;20528;-79
2021/09/11 06:57:49;;;;;;;9.20;3.47;;;;;;;;;;4994602;28;20034;-78
2021/09/11 07:00:15;;;;;;;8.35;3.47;;;;;;;;;;4993345;28;20042;-78
2021/09/11 07:02:41;;;;;;;10.75;4.78;;;;;;;;;;4994429;28;20026;-78
2021/09/11 07:05:07;;;;;;;9.18;3.83;;;;;;;;;;4996282;28;20030;-78
2021/09/11 07:07:33;;;;;;;10.70;3.90;;;;;;;;;;5002025;28;20073;-78
2021/09/11 07:09:59;;;;;;;8.88;3.97;;;;;;;;;;5008871;28;20045;-79
2021/09/11 07:12:25;;;;;;;12.70;4.57;;;;;;;;;;5012265;28;20045;-74
2021/09/11 07:14:51;;;;;;;14.20;4.80;;;;;;;;;;5012866;28;20088;-73
2021/09/11 07:17:17;;;;;;;9.57;4.45;;;;;;;;;;4995800;28;20030;-73
2021/09/11 07:19:43;;;;;;;11.95;5.10;;;;;;;;;;5009364;28;20044;-73
2021/09/11 07:22:09;;;;;;;11.07;5.30;;;;;;;;;;5013129;28;20385;-73
2021/09/11 07:24:35;;;;;;;11.68;4.88;;;;;;;;;;5014598;28;20060;-73
2021/09/11 07:27:01;;;;;;;17.70;5.07;;;;;;;;;;5004352;28;20019;-74
2021/09/11 07:29:27;;;;;;;13.77;5.30;;;;;;;;;;4997265;28;20037;-74
2021/09/11 07:31:53;;;;;;;11.05;5.30;;;;;;;;;;4997395;28;20101;-75
2021/09/11 07:34:19;;;;;;;13.40;5.32;;;;;;;;;;4997941;28;20458;-74
2021/09/11 07:36:45;;;;;;;21.75;6.10;;;;;;;;;;5000223;28;20023;-73
2021/09/11 07:39:14;;;;;;;14.63;5.35;;;;;;;;;;5011662;28;20464;-75
2021/09/11 07:41:40;;;;;;;15.43;6.03;;;;;;;;;;5004569;28;20038;-74
2021/09/11 07:44:06;;;;;;;22.50;6.25;;;;;;;;;;5009623;28;20026;-74
2021/09/11 07:46:32;;;;;;;17.23;6.00;;;;;;;;;;5011319;28;20033;-73
2021/09/11 07:48:58;;;;;;;20.58;6.00;;;;;;;;;;5015778;28;20426;-73
2021/09/11 07:51:24;;;;;;;13.90;5.65;;;;;;;;;;5008008;28;20034;-73
2021/09/11 07:53:50;;;;;;;21.33;5.35;;;;;;;;;;5005500;28;20042;-78
2021/09/11 07:56:19;;;;;;;14.20;6.10;;;;;;;;;;5011009;28;20018;-78
2021/09/11 07:58:45;;;;;;;13.80;5.00;;;;;;;;;;5017435;28;20476;-75
2021/09/11 08:01:11;;;;;;;22.58;5.32;;;;;;;;;;5005060;28;20027;-69
2021/09/11 08:03:37;;;;;;;15.10;5.32;;;;;;;;;;4999479;28;20385;-69
2021/09/11 08:06:08;;;;;;;17.13;5.93;;;;;;;;;;5000211;28;20073;-69
2021/09/11 08:08:35;;;;;;;15.30;6.13;;;;;;;;;;5007589;28;20424;-69
2021/09/11 08:11:01;;;;;;;15.65;5.60;;;;;;;;;;5003070;28;20018;-70
2021/09/11 08:13:27;;;;;;;15.50;5.88;;;;;;;;;;4996724;28;20041;-69
2021/09/11 08:15:53;;;;;;;11.13;5.68;;;;;;;;;;5013249;28;20058;-69
2021/09/11 08:18:19;;;;;;;15.85;6.35;;;;;;;;;;5015655;28;20515;-69
2021/09/11 08:20:45;;;;;;;12.85;6.35;;;;;;;;;;5015832;28;20034;-69
2021/09/11 08:23:11;;;;;;;16.55;6.72;;;;;;;;;;5008172;28;20050;-69
2021/09/11 08:25:37;;;;;;;14.30;6.88;;;;;;;;;;4994878;28;20048;-69
2021/09/11 08:28:03;;;;;;;18.38;6.88;;;;;;;;;;4995173;28;20466;-69
2021/09/11 08:30:29;;;;;;;16.67;7.05;;;;;;;;;;4996016;28;20022;-71
2021/09/11 08:32:55;;;;;;;17.85;6.68;;;;;;;;;;5009573;28;20029;-66
2021/09/11 08:35:22;;;;;;;11.90;7.32;;;;;;;;;;5014878;28;20060;-73
2021/09/11 08:37:48;;;;;;;13.02;6.95;;;;;;;;;;5015891;28;20080;-67
2021/09/11 08:40:14;;;;;;;13.68;6.93;;;;;;;;;;5011741;28;20037;-70
2021/09/11 08:42:40;;;;;;;15.00;6.80;;;;;;;;;;5002561;28;20114;-67
2021/09/11 08:45:06;;;;;;;14.63;6.72;;;;;;;;;;5005930;28;20041;-67
2021/09/11 08:47:32;;;;;;;16.20;6.95;;;;;;;;;;4997342;28;20029;-66
2021/09/11 08:49:58;;;;;;;15.48;7.30;;;;;;;;;;4995587;28;20035;-66
2021/09/11 08:52:24;;;;;;;12.60;6.88;;;;;;;;;;4995504;28;20048;-66
2021/09/11 08:54:50;;;;;;;14.77;6.13;;;;;;;;;;5001674;28;20176;-67
2021/09/11 08:57:26;;;;;;;20.40;6.95;;;;;;;;;;5000126;28;20501;-67
2021/09/11 08:59:53;;;;;;;14.43;7.28;;;;;;;;;;5006815;28;20049;-70
2021/09/11 09:02:20;;;;;;;16.50;7.47;;;;;;;;;;5011384;28;20022;-68
2021/09/11 09:04:48;;;;;;;13.68;7.10;;;;;;;;;;5001355;28;20026;-69
2021/09/11 09:07:33;;;;;;;19.83;6.57;;;;;;;;;;5004869;28;20014;-73
2021/09/11 09:09:59;;;;;;;19.85;7.93;;;;;;;;;;5006982;28;20049;-69
2021/09/11 09:12:30;;;;;;;16.55;7.38;;;;;;;;;;5004860;28;20088;-69
2021/09/11 09:15:03;;;;;;;18.25;7.40;;;;;;;;;;5005664;28;20068;-68
2021/09/11 09:17:43;;;;;;;16.85;7.97;;;;;;;;;;5001699;28;20030;-67
2021/09/11 09:20:14;;;;;;;18.77;7.57;;;;;;;;;;5005299;28;20429;-68
2021/09/11 09:22:40;;;;;;;12.63;6.97;;;;;;;;;;5002394;28;20018;-67
2021/09/11 09:25:20;;;;;;;15.88;7.25;;;;;;;;;;4982486;28;20398;-67
2021/09/11 09:27:50;;;;;;;14.15;7.40;;;;;;;;;;5005303;28;20045;-68
2021/09/11 09:30:18;;;;;;;16.83;8.20;;;;;;;;;;5014536;28;20470;-68
2021/09/11 09:32:47;;;;;;;12.88;7.50;;;;;;;;;;5014632;28;20026;-68
2021/09/11 09:35:17;;;;;;;15.27;7.13;;;;;;;;;;5014086;28;20034;-72
2021/09/11 09:37:56;;;;;;;12.77;7.57;;;;;;;;;;5011330;28;20045;-68
2021/09/11 09:40:36;;;;;;;12.60;6.82;;;;;;;;;;5001856;28;20034;-68
2021/09/11 09:43:03;;;;;;;13.27;6.63;;;;;;;;;;5012935;28;20092;-68
2021/09/11 09:45:30;;;;;;;11.07;6.72;;;;;;;;;;5013507;28;20382;-68
2021/09/11 09:48:10;;;;;;;12.27;6.70;;;;;;;;;;5003999;28;20029;-68
2021/09/11 09:50:42;;;;;;;14.23;6.63;;;;;;;;;;4994661;28;20131;-68
2021/09/11 09:53:10;;;;;;;14.60;6.72;;;;;;;;;;5002351;28;20053;-72
2021/09/11 09:55:39;;;;;;;11.38;6.43;;;;;;;;;;5014383;28;20116;-70
2021/09/11 09:58:07;;;;;;;12.52;6.50;;;;;;;;;;5012860;28;20045;-69
2021/09/11 10:00:33;;;;;;;9.38;6.25;;;;;;;;;;5014186;28;20038;-71
2021/09/11 10:02:59;;;;;;;11.02;6.35;;;;;;;;;;5014066;28;20022;-68
2021/09/11 10:05:29;;;;;;;32.70;6.65;;;;;;;;;;5012716;28;20032;-72
2021/09/11 10:07:58;;;;;;;11.27;5.85;;;;;;;;;;5012552;28;20423;-69
2021/09/11 10:10:50;;;;;;;19.98;5.97;;;;;;;;;;5005390;28;20048;-68
2021/09/11 10:13:17;;;;;;;14.88;6.07;;;;;;;;;;5010087;28;20056;-69
2021/09/11 10:16:04;;;;;;;21.67;6.10;;;;;;;;;;5011683;28;20026;-69
2021/09/11 10:18:30;;;;;;;33.83;5.40;;;;;;;;;;5009715;28;20034;-68
2021/09/11 10:21:12;;;;;;;18.50;6.35;;;;;;;;;;5004535;28;20026;-69
2021/09/11 10:23:38;;;;;;;30.90;6.57;;;;;;;;;;5008180;28;20022;-71
2021/09/11 10:26:04;;;;;;;23.30;6.57;;;;;;;;;;5004673;28;20040;-69
2021/09/11 10:28:30;;;;;;;18.90;5.93;;;;;;;;;;5005815;28;20037;-68
2021/09/11 10:31:03;;;;;;;20.30;6.30;;;;;;;;;;5002601;28;20140;-68
2021/09/11 10:33:47;;;;;;;10.27;5.32;;;;;;;;;;5001150;28;20363;-70
2021/09/11 10:36:19;;;;;;;10.93;5.30;;;;;;;;;;5002899;28;20022;-71
2021/09/11 10:38:45;;;;;;;15.25;5.60;;;;;;;;;;4998625;28;20022;-70
2021/09/11 10:41:13;;;;;;;13.88;4.82;;;;;;;;;;5005939;28;20033;-70
2021/09/11 10:43:59;;;;;;;12.75;4.70;;;;;;;;;;5004752;28;20072;-69
2021/09/11 10:46:45;;;;;;;23.25;4.90;;;;;;;;;;5003501;28;20358;-67
2021/09/11 10:49:30;;;;;;;8.05;4.20;;;;;;;;;;5007100;28;20072;-69
2021/09/11 10:52:05;;;;;;;14.45;4.00;;;;;;;;;;5010869;28;20029;-68
2021/09/11 10:54:38;;;;;;;7.63;3.70;;;;;;;;;;5001393;28;20023;-69
2021/09/11 10:57:09;;;;;;;16.15;7.88;;;;;;;;;;5007056;28;20018;-76
2021/09/11 10:59:37;;;;;;;13.57;7.97;;;;;;;;;;5005826;28;20021;-66
2021/09/11 11:02:09;;;;;;;13.45;7.60;;;;;;;;;;5006957;28;20026;-67
2021/09/11 11:04:47;;;;;;;24.10;10.88;;;;;;;;;;5007380;28;20025;-67
2021/09/11 11:07:14;;;;;;;11.63;7.18;;;;;;;;;;5006186;28;20029;-65
2021/09/11 11:09:41;;;;;;;11.25;7.68;;;;;;;;;;5005460;28;20032;-65
2021/09/11 11:12:09;;;;;;;16.60;8.48;;;;;;;;;;5005193;28;20528;-64
2021/09/11 11:14:35;;;;;;;14.25;9.65;;;;;;;;;;5007009;28;20489;-66
2021/09/11 11:17:02;;;;;;;38.95;9.63;;;;;;;;;;5005408;28;20025;-66
2021/09/11 11:19:29;;;;;;;27.63;8.23;;;;;;;;;;5005719;28;20889;-65
2021/09/11 11:21:55;;;;;;;27.90;10.10;;;;;;;;;;5004508;28;20447;-65
2021/09/11 11:24:21;;;;;;;21.60;8.90;;;;;;;;;;5007143;28;20459;-65
2021/09/11 11:26:47;;;;;;;23.75;8.52;;;;;;;;;;5005855;28;20105;-65
2021/09/11 11:29:16;;;;;;;14.73;8.15;;;;;;;;;;5005539;28;20121;-66
2021/09/11 11:31:43;;;;;;;14.45;6.97;;;;;;;;;;5006733;28;20100;-65
2021/09/11 11:34:11;;;;;;;10.60;5.40;;;;;;;;;;5004267;28;20027;-66
2021/09/11 11:36:37;;;;;;;8.68;5.45;;;;;;;;;;5005500;28;20023;-64
2021/09/11 11:39:22;;;;;;;7.28;5.00;;;;;;;;;;5006074;28;20496;-66
2021/09/11 11:42:14;;;;;;;7.55;4.53;;;;;;;;;;5005995;28;20027;-67
2021/09/11 11:45:00;;;;;;;5.80;4.67;;;;;;;;;;5003541;28;20038;-65
2021/09/11 11:47:40;;;;;;;6.95;4.20;;;;;;;;;;5005367;28;20275;-65
2021/09/11 11:50:09;;;;;;;6.03;3.67;;;;;;;;;;5005359;28;20481;-65
2021/09/11 11:52:35;;;;;;;7.90;4.00;;;;;;;;;;5005642;28;20165;-66
2021/09/11 11:55:06;;;;;;;5.15;3.83;;;;;;;;;;5004197;28;20030;-65
2021/09/11 11:57:32;;;;;;;4.25;3.10;;;;;;;;;;5004219;28;20112;-65
2021/09/11 11:59:59;;;;;;;5.45;3.40;;;;;;;;;;5004990;28;20471;-64
2021/09/11 12:02:30;;;;;;;4.50;3.53;;;;;;;;;;5006378;28;20036;-65
2021/09/11 12:05:11;;;;;;;4.18;3.35;;;;;;;;;;5004752;28;20169;-65
2021/09/11 12:07:37;;;;;;;8.75;3.58;;;;;;;;;;5006398;28;20109;-65
2021/09/11 12:10:05;;;;;;;4.75;3.20;;;;;;;;;;5004907;28;20125;-64
2021/09/11 12:12:45;;;;;;;4.45;3.17;;;;;;;;;;5002781;28;20067;-65
2021/09/11 12:15:12;;;;;;;7.75;2.85;;;;;;;;;;5006263;28;20057;-65
2021/09/11 12:17:50;;;;;;;6.00;3.28;;;;;;;;;;5004148;28;20030;-65
2021/09/11 12:20:16;;;;;;;5.32;3.20;;;;;;;;;;5004434;28;20034;-66
2021/09/11 12:22:42;;;;;;;6.43;3.67;;;;;;;;;;5004188;28;20033;-69
2021/09/11 12:25:09;;;;;;;10.38;4.50;;;;;;;;;;5003178;28;20026;-69
2021/09/11 12:27:35;;;;;;;42.72;7.55;;;;;;;;;;5005601;28;20068;-69
2021/09/11 12:30:10;;;;;;;21.15;6.60;;;;;;;;;;5006390;28;20029;-70
2021/09/11 12:32:36;;;;;;;14.13;9.07;;;;;;;;;;5004271;28;20026;-71
2021/09/11 12:35:06;;;;;;;16.65;10.13;;;;;;;;;;5003362;28;20026;-70
2021/09/11 12:37:50;;;;;;;13.63;9.70;;;;;;;;;;5006352;28;20109;-71
2021/09/11 12:40:16;;;;;;;15.82;8.88;;;;;;;;;;5004105;28;20474;-71
2021/09/11 12:42:42;;;;;;;14.63;8.63;;;;;;;;;;5004711;28;20099;-70
2021/09/11 12:45:10;;;;;;;13.35;8.63;;;;;;;;;;5004868;28;20029;-70
2021/09/11 12:47:36;;;;;;;15.55;9.68;;;;;;;;;;5003803;28;20113;-69
2021/09/11 12:50:03;;;;;;;15.50;9.77;;;;;;;;;;5003913;28;20034;-71
2021/09/11 12:52:29;;;;;;;12.27;8.85;;;;;;;;;;5002055;28;20034;-70
2021/09/11 12:54:55;;;;;;;13.40;8.80;;;;;;;;;;5005310;28;20027;-70
2021/09/11 12:57:21;;;;;;;14.43;9.45;;;;;;;;;;5001408;28;20022;-71
2021/09/11 12:59:47;;;;;;;15.10;9.50;;;;;;;;;;5007731;28;20120;-69
2021/09/11 13:02:13;;;;;;;13.07;9.00;;;;;;;;;;5003459;28;20030;-71
2021/09/11 13:04:39;;;;;;;11.13;8.55;;;;;;;;;;5003423;28;20030;-70
2021/09/11 13:07:05;;;;;;;14.75;8.57;;;;;;;;;;5004179;28;20022;-70
2021/09/11 13:09:32;;;;;;;15.98;8.20;;;;;;;;;;5003834;28;20022;-69
2021/09/11 13:11:59;;;;;;;20.65;8.05;;;;;;;;;;5003991;28;20092;-69
2021/09/11 13:14:25;;;;;;;12.98;7.65;;;;;;;;;;5003697;28;20058;-68
2021/09/11 13:16:51;;;;;;;12.65;7.68;;;;;;;;;;5006275;28;20053;-69
2021/09/11 13:19:17;;;;;;;14.00;8.15;;;;;;;;;;5006101;28;20041;-70
2021/09/11 13:21:43;;;;;;;10.93;7.07;;;;;;;;;;5002520;28;20028;-69
2021/09/11 13:24:10;;;;;;;11.98;7.68;;;;;;;;;;5003474;28;20117;-68
2021/09/11 13:26:37;;;;;;;14.63;7.88;;;;;;;;;;5001140;28;20027;-65
2021/09/11 13:29:04;;;;;;;12.30;8.60;;;;;;;;;;5003853;28;20378;-67
2021/09/11 13:31:31;;;;;;;15.63;8.10;;;;;;;;;;5003038;28;20036;-67
2021/09/11 13:33:57;;;;;;;12.45;7.78;;;;;;;;;;5004311;28;20030;-67
2021/09/11 13:36:24;;;;;;;8.98;7.35;;;;;;;;;;5001872;28;20026;-67
2021/09/11 13:38:50;;;;;;;13.52;8.18;;;;;;;;;;5001493;28;20037;-68
2021/09/11 13:41:17;;;;;;;9.95;7.10;;;;;;;;;;5004287;28;20037;-68
2021/09/11 13:43:43;;;;;;;13.77;7.10;;;;;;;;;;5002874;28;20419;-68
2021/09/11 13:46:10;;;;;;;14.25;7.57;;;;;;;;;;5002434;28;20535;-68
2021/09/11 13:48:38;;;;;;;11.60;8.50;;;;;;;;;;5005208;28;20077;-68
2021/09/11 13:51:04;;;;;;;11.57;7.65;;;;;;;;;;5002743;28;20037;-68
2021/09/11 13:53:30;;;;;;;13.32;8.35;;;;;;;;;;4999049;28;20022;-68
2021/09/11 13:55:56;;;;;;;17.02;8.13;;;;;;;;;;5002126;28;20030;-68
2021/09/11 13:58:22;;;;;;;12.00;8.13;;;;;;;;;;5002841;28;20045;-68
2021/09/11 14:00:48;;;;;;;13.75;8.18;;;;;;;;;;5001104;28;20030;-67
2021/09/11 14:03:14;;;;;;;14.68;8.95;;;;;;;;;;5002455;28;20023;-68
2021/09/11 14:05:41;;;;;;;16.15;10.07;;;;;;;;;;5002182;28;20113;-68
2021/09/11 14:08:07;;;;;;;14.73;8.95;;;;;;;;;;5006228;28;20030;-67
2021/09/11 14:10:33;;;;;;;14.40;9.07;;;;;;;;;;5003506;28;20026;-68
2021/09/11 14:12:59;;;;;;;12.80;8.77;;;;;;;;;;5004253;28;20042;-68
2021/09/11 14:15:25;;;;;;;13.15;8.60;;;;;;;;;;5002993;28;20461;-67
2021/09/11 14:17:52;;;;;;;16.80;8.07;;;;;;;;;;5002861;28;20022;-68
2021/09/11 14:20:19;;;;;;;14.05;8.07;;;;;;;;;;5002630;28;20359;-68
2021/09/11 14:22:45;;;;;;;11.75;7.85;;;;;;;;;;5007272;28;20022;-69
2021/09/11 14:25:12;;;;;;;12.43;7.93;;;;;;;;;;5004377;28;20054;-68
2021/09/11 14:27:38;;;;;;;15.38;8.60;;;;;;;;;;5002836;28;20481;-68
2021/09/11 14:30:05;;;;;;;14.82;8.02;;;;;;;;;;5003442;28;20096;-68
2021/09/11 14:32:31;;;;;;;15.45;7.88;;;;;;;;;;5003949;28;20473;-67
2021/09/11 14:34:57;;;;;;;12.38;7.45;;;;;;;;;;5004894;28;20088;-69